createdAt,value
2023-01-26T00:01:37.148Z,5.09
2023-01-26T00:04:04.704Z,4.99
2023-01-26T00:06:32.295Z,4.91
2023-01-26T00:08:59.825Z,4.86
2023-01-26T00:11:28.042Z,4.89
2023-01-26T00:13:57.815Z,4.91
2023-01-26T00:16:25.863Z,4.90
2023-01-26T00:18:54.204Z,4.91
2023-01-26T00:21:23.213Z,4.85
2023-01-26T00:23:51.545Z,4.86
2023-01-26T00:26:24.888Z,4.89
2023-01-26T00:28:53.694Z,4.94
2023-01-26T00:31:25.339Z,5.00
2023-01-26T00:33:55.256Z,5.07
2023-01-26T00:36:22.865Z,4.89
2023-01-26T00:38:50.273Z,4.95
2023-01-26T00:41:36.191Z,4.87
2023-01-26T00:44:03.810Z,4.89
2023-01-26T00:46:31.385Z,5.03
2023-01-26T00:49:01.133Z,4.91
2023-01-26T00:51:28.811Z,4.90
2023-01-26T00:53:57.260Z,4.90
2023-01-26T00:56:28.162Z,4.85
2023-01-26T00:58:55.709Z,5.02
2023-01-26T01:01:23.203Z,4.90
2023-01-26T01:03:52.285Z,4.83
2023-01-26T01:06:19.785Z,4.80
2023-01-26T01:08:47.576Z,4.87
2023-01-26T01:11:15.309Z,4.86
2023-01-26T01:13:43.193Z,4.81
2023-01-26T01:16:13.705Z,4.88
2023-01-26T01:18:41.356Z,4.85
2023-01-26T01:21:12.452Z,4.89
2023-01-26T01:23:40.599Z,4.90
2023-01-26T01:26:09.333Z,4.89
2023-01-26T01:28:37.064Z,4.90
2023-01-26T01:31:10.190Z,4.91
2023-01-26T01:33:38.855Z,4.91
2023-01-26T01:36:09.248Z,5.03
2023-01-26T01:38:37.019Z,4.99
2023-01-26T01:41:04.738Z,4.85
2023-01-26T01:43:32.341Z,4.78
2023-01-26T01:46:02.113Z,4.78
2023-01-26T01:48:37.091Z,4.79
2023-01-26T01:51:14.653Z,4.87
2023-01-26T01:53:46.774Z,4.97
2023-01-26T01:56:22.041Z,4.85
2023-01-26T01:58:54.158Z,4.91
2023-01-26T02:01:21.666Z,4.81
2023-01-26T02:03:51.934Z,4.85
2023-01-26T02:06:25.128Z,4.84
2023-01-26T02:08:57.170Z,4.81
2023-01-26T02:11:33.988Z,4.79
2023-01-26T02:14:04.944Z,4.84
2023-01-26T02:16:32.386Z,4.84
2023-01-26T02:19:00.099Z,4.88
2023-01-26T02:21:28.007Z,4.92
2023-01-26T02:24:25.483Z,4.91
2023-01-26T02:26:54.829Z,4.90
2023-01-26T02:29:23.421Z,4.98
2023-01-26T02:31:53.728Z,5.05
2023-01-26T02:34:21.912Z,5.15
2023-01-26T02:36:59.020Z,5.13
2023-01-26T02:39:32.392Z,5.07
2023-01-26T02:42:18.489Z,5.03
2023-01-26T02:44:46.353Z,5.01
2023-01-26T02:47:16.328Z,5.00
2023-01-26T02:49:53.046Z,5.05
2023-01-26T02:52:25.912Z,4.98
2023-01-26T02:55:19.724Z,4.98
2023-01-26T02:57:47.380Z,4.96
2023-01-26T03:00:19.353Z,4.95
2023-01-26T03:02:48.284Z,4.95
2023-01-26T03:05:16.185Z,4.97
2023-01-26T03:07:43.792Z,4.96
2023-01-26T03:10:13.059Z,4.95
2023-01-26T03:12:40.846Z,4.99
2023-01-26T03:15:27.738Z,5.01
2023-01-26T03:18:25.982Z,5.09
2023-01-26T03:21:12.079Z,5.08
2023-01-26T03:23:58.354Z,5.12
2023-01-26T03:26:46.344Z,5.10
2023-01-26T03:29:14.323Z,5.08
2023-01-26T03:31:43.444Z,5.11
2023-01-26T03:34:11.464Z,5.09
2023-01-26T03:36:39.743Z,5.13
2023-01-26T03:39:32.693Z,5.12
2023-01-26T03:42:19.564Z,5.10
2023-01-26T03:45:05.616Z,5.13
2023-01-26T03:47:52.767Z,5.09
2023-01-26T03:50:39.492Z,5.08
2023-01-26T03:53:36.882Z,5.12
2023-01-26T03:56:41.362Z,5.12
2023-01-26T03:59:15.557Z,5.14
2023-01-26T04:02:05.342Z,5.14
2023-01-26T04:04:52.413Z,5.20
2023-01-26T04:07:42.487Z,5.22
2023-01-26T04:10:10.683Z,5.20
2023-01-26T04:12:38.334Z,5.19
2023-01-26T04:15:35.923Z,5.16
2023-01-26T04:18:27.011Z,5.16
2023-01-26T04:21:14.508Z,5.15
2023-01-26T04:23:44.513Z,5.14
2023-01-26T04:26:11.938Z,5.15
2023-01-26T04:28:39.596Z,5.16
2023-01-26T04:31:06.976Z,5.15
2023-01-26T04:33:36.764Z,5.17
2023-01-26T04:36:06.052Z,5.26
2023-01-26T04:38:35.220Z,5.27
2023-01-26T04:41:02.817Z,5.29
2023-01-26T04:43:33.312Z,5.31
2023-01-26T04:46:07.300Z,5.34
2023-01-26T04:48:36.933Z,5.43
2023-01-26T04:51:12.297Z,5.50
2023-01-26T04:53:40.295Z,5.59
2023-01-26T04:56:13.604Z,5.85
2023-01-26T04:58:41.336Z,5.96
2023-01-26T05:01:09.027Z,5.98
2023-01-26T05:03:36.631Z,6.18
2023-01-26T05:06:04.844Z,6.40
2023-01-26T05:08:32.398Z,6.44
2023-01-26T05:10:59.725Z,6.52
2023-01-26T05:13:42.730Z,6.53
2023-01-26T05:16:23.142Z,6.55
2023-01-26T05:18:54.169Z,6.68
2023-01-26T05:21:40.896Z,6.64
2023-01-26T05:24:09.267Z,6.68
2023-01-26T05:27:16.854Z,6.67
2023-01-26T05:29:45.335Z,6.72
2023-01-26T05:32:12.962Z,6.75
2023-01-26T05:34:40.814Z,6.78
2023-01-26T05:37:08.298Z,6.88
2023-01-26T05:39:36.684Z,6.81
2023-01-26T05:42:06.197Z,6.73
2023-01-26T05:44:34.618Z,6.73
2023-01-26T05:47:11.084Z,6.77
2023-01-26T05:49:41.657Z,6.78
2023-01-26T05:52:12.170Z,6.73
2023-01-26T05:54:42.233Z,6.82
2023-01-26T05:57:10.580Z,6.68
2023-01-26T05:59:41.929Z,6.74
2023-01-26T06:02:11.984Z,6.81
2023-01-26T06:04:41.779Z,6.81
2023-01-26T06:07:10.398Z,6.75
2023-01-26T06:09:43.376Z,6.84
2023-01-26T06:12:21.377Z,6.84
2023-01-26T06:14:58.738Z,6.81
2023-01-26T06:17:42.288Z,6.81
2023-01-26T06:20:14.822Z,6.76
2023-01-26T06:22:47.784Z,6.85
2023-01-26T06:25:16.378Z,6.77
2023-01-26T06:27:44.024Z,6.80
2023-01-26T06:30:19.355Z,6.75
2023-01-26T06:32:47.843Z,6.68
2023-01-26T06:35:15.553Z,6.70
2023-01-26T06:37:44.129Z,6.66
2023-01-26T06:40:12.167Z,6.66
2023-01-26T06:42:39.861Z,6.62
2023-01-26T06:45:08.357Z,6.59
2023-01-26T06:47:36.766Z,6.59
2023-01-26T06:50:05.515Z,6.62
2023-01-26T06:52:36.392Z,6.62
2023-01-26T06:55:38.371Z,6.61
2023-01-26T06:58:24.692Z,6.65
2023-01-26T07:01:04.695Z,6.63
2023-01-26T07:03:35.187Z,6.70
2023-01-26T07:06:02.864Z,6.73
2023-01-26T07:08:30.413Z,6.70
2023-01-26T07:10:57.849Z,6.76
2023-01-26T07:13:25.089Z,6.68
2023-01-26T07:15:52.481Z,6.63
2023-01-26T07:18:21.255Z,6.79
2023-01-26T07:20:48.696Z,6.80
2023-01-26T07:23:16.032Z,6.76
2023-01-26T07:25:43.772Z,6.74
2023-01-26T07:30:39.912Z,6.67
2023-01-26T07:33:07.574Z,6.69
2023-01-26T07:35:34.843Z,6.62
2023-01-26T07:38:04.122Z,6.61
2023-01-26T07:40:31.528Z,6.62
2023-01-26T07:43:01.928Z,6.63
2023-01-26T07:45:55.116Z,6.63
2023-01-26T07:48:24.554Z,6.65
2023-01-26T07:50:52.102Z,6.58
2023-01-26T07:53:19.554Z,6.55
2023-01-26T07:55:47.559Z,6.63
2023-01-26T07:58:15.643Z,6.66
2023-01-26T08:00:43.124Z,6.70
2023-01-26T08:03:10.504Z,6.69
2023-01-26T08:05:38.636Z,6.56
2023-01-26T08:08:06.584Z,6.64
2023-01-26T08:10:34.000Z,6.71
2023-01-26T08:13:01.898Z,6.69
2023-01-26T08:15:29.619Z,6.66
2023-01-26T08:17:57.204Z,6.69
2023-01-26T08:20:24.736Z,6.68
2023-01-26T08:22:52.048Z,6.70
2023-01-26T08:25:19.250Z,6.65
2023-01-26T08:27:46.694Z,6.70
2023-01-26T08:30:16.175Z,6.64
2023-01-26T08:32:43.783Z,6.70
2023-01-26T08:35:11.122Z,6.73
2023-01-26T08:37:38.767Z,6.70
2023-01-26T08:40:07.770Z,6.72
2023-01-26T08:42:35.297Z,6.69
2023-01-26T08:45:02.995Z,6.72
2023-01-26T08:47:30.537Z,6.77
2023-01-26T08:49:57.824Z,6.70
2023-01-26T08:52:25.395Z,6.78
2023-01-26T08:54:52.867Z,6.82
2023-01-26T08:57:20.680Z,6.81
2023-01-26T08:59:48.085Z,6.86
2023-01-26T09:02:15.557Z,6.88
2023-01-26T09:04:42.955Z,6.85
2023-01-26T09:07:12.607Z,6.85
2023-01-26T09:09:40.951Z,6.93
2023-01-26T09:12:08.541Z,6.99
2023-01-26T09:14:36.086Z,7.04
2023-01-26T09:17:03.726Z,7.04
2023-01-26T09:19:31.314Z,7.06
2023-01-26T09:21:58.749Z,7.02
2023-01-26T09:24:26.310Z,7.07
2023-01-26T09:26:53.914Z,7.05
2023-01-26T09:29:21.395Z,6.94
2023-01-26T09:31:49.058Z,6.83
2023-01-26T09:34:16.726Z,6.93
2023-01-26T09:36:44.374Z,7.04
2023-01-26T09:39:11.715Z,7.09
2023-01-26T09:42:16.813Z,7.16
2023-01-26T09:44:52.587Z,7.07
2023-01-26T09:47:30.322Z,7.08
2023-01-26T09:50:11.149Z,7.20
2023-01-26T09:52:57.730Z,7.23
2023-01-26T09:55:25.556Z,7.20
2023-01-26T09:58:01.279Z,7.19
2023-01-26T10:00:36.719Z,7.20
2023-01-26T10:03:33.217Z,7.23
2023-01-26T10:06:29.150Z,7.17
2023-01-26T10:09:24.259Z,7.07
2023-01-26T10:11:56.537Z,7.13
2023-01-26T10:14:45.491Z,7.08
2023-01-26T10:17:31.113Z,7.08
2023-01-26T10:20:17.450Z,7.03
2023-01-26T10:22:47.913Z,7.10
2023-01-26T10:25:21.497Z,7.14
2023-01-26T10:27:48.984Z,7.07
2023-01-26T10:30:17.235Z,7.14
2023-01-26T10:32:47.511Z,7.17
2023-01-26T10:35:25.865Z,7.22
2023-01-26T10:37:53.683Z,7.22
2023-01-26T10:40:21.812Z,7.23
2023-01-26T10:42:59.500Z,7.28
2023-01-26T10:45:33.090Z,7.35
2023-01-26T10:48:07.044Z,7.34
2023-01-26T10:50:35.162Z,7.35
2023-01-26T10:53:05.011Z,7.33
2023-01-26T10:55:36.448Z,7.41
2023-01-26T10:58:04.193Z,7.30
2023-01-26T11:00:34.555Z,7.37
2023-01-26T11:03:14.260Z,7.31
2023-01-26T11:05:43.591Z,7.30
2023-01-26T11:08:37.351Z,7.27
2023-01-26T11:11:08.093Z,7.25
2023-01-26T11:13:35.603Z,7.27
2023-01-26T11:16:20.715Z,7.33
2023-01-26T11:19:00.837Z,7.33
2023-01-26T11:21:36.510Z,7.33
2023-01-26T11:24:05.148Z,7.47
2023-01-26T11:27:02.407Z,7.55
2023-01-26T11:29:30.336Z,7.79
2023-01-26T11:32:31.895Z,7.73
2023-01-26T11:34:59.387Z,7.80
2023-01-26T11:37:30.184Z,7.89
2023-01-26T11:40:11.225Z,7.71
2023-01-26T11:43:01.375Z,7.71
2023-01-26T11:45:40.917Z,7.80
2023-01-26T11:48:33.403Z,7.89
2023-01-26T11:51:20.941Z,7.81
2023-01-26T11:54:28.933Z,7.63
2023-01-26T11:57:05.496Z,7.69
2023-01-26T11:59:47.127Z,7.76
2023-01-26T12:02:35.898Z,7.77
2023-01-26T12:05:26.231Z,7.93
2023-01-26T12:07:59.647Z,7.79
2023-01-26T12:10:36.765Z,7.84
2023-01-26T12:13:13.925Z,7.87
2023-01-26T12:15:47.833Z,7.88
2023-01-26T12:18:42.406Z,7.86
2023-01-26T12:21:20.527Z,7.98
2023-01-26T12:23:59.191Z,7.96
2023-01-26T12:26:32.363Z,7.91
2023-01-26T12:29:23.057Z,7.87
2023-01-26T12:31:56.388Z,7.84
2023-01-26T12:34:28.710Z,7.80
2023-01-26T12:37:30.067Z,7.96
2023-01-26T12:40:09.639Z,8.11
2023-01-26T12:42:52.371Z,8.16
2023-01-26T12:45:30.973Z,8.14
2023-01-26T12:48:07.691Z,8.07
2023-01-26T12:50:39.861Z,8.19
2023-01-26T12:53:24.395Z,8.13
2023-01-26T12:56:03.653Z,8.19
2023-01-26T12:58:38.113Z,8.05
2023-01-26T13:01:10.624Z,8.15
2023-01-26T13:03:46.115Z,8.21
2023-01-26T13:06:13.646Z,8.18
2023-01-26T13:09:04.487Z,8.17
2023-01-26T13:11:53.357Z,8.22
2023-01-26T13:14:36.763Z,8.39
2023-01-26T13:17:16.504Z,8.45
2023-01-26T13:19:44.152Z,8.51
2023-01-26T13:22:23.823Z,8.43
2023-01-26T13:24:59.631Z,8.56
2023-01-26T13:27:39.947Z,8.66
2023-01-26T13:30:26.131Z,8.54
2023-01-26T13:33:20.230Z,8.65
2023-01-26T13:35:50.283Z,8.75
2023-01-26T13:38:37.404Z,8.71
2023-01-26T13:41:09.614Z,8.68
2023-01-26T13:43:45.896Z,8.67
2023-01-26T13:46:34.169Z,8.53
2023-01-26T13:49:02.395Z,8.39
2023-01-26T13:51:32.020Z,8.50
2023-01-26T13:54:05.882Z,8.40
2023-01-26T13:56:41.800Z,8.27
2023-01-26T13:59:09.393Z,8.37
2023-01-26T14:01:48.618Z,8.30
2023-01-26T14:04:21.613Z,8.23
2023-01-26T14:07:10.167Z,8.30
2023-01-26T14:09:52.517Z,8.25
2023-01-26T14:12:27.589Z,8.20
2023-01-26T14:15:01.172Z,8.18
2023-01-26T14:17:34.284Z,8.10
2023-01-26T14:20:03.769Z,8.05
2023-01-26T14:22:31.334Z,8.00
2023-01-26T14:24:58.844Z,8.01
2023-01-26T14:27:26.460Z,8.00
2023-01-26T14:29:53.943Z,8.06
2023-01-26T14:32:25.458Z,8.09
2023-01-26T14:34:54.748Z,8.14
2023-01-26T14:37:22.861Z,8.19
2023-01-26T14:40:10.336Z,8.29
2023-01-26T14:42:40.129Z,8.30
2023-01-26T14:45:13.508Z,8.24
2023-01-26T14:47:45.493Z,8.30
2023-01-26T14:50:23.437Z,8.30
2023-01-26T14:52:51.074Z,8.27
2023-01-26T14:55:30.645Z,8.30
2023-01-26T14:57:59.307Z,8.29
2023-01-26T15:00:31.412Z,8.28
2023-01-26T15:03:02.174Z,8.32
2023-01-26T15:05:42.356Z,8.29
2023-01-26T15:08:24.799Z,8.20
2023-01-26T15:11:19.831Z,8.23
2023-01-26T15:13:52.335Z,8.21
2023-01-26T15:16:23.151Z,8.23
2023-01-26T15:19:02.683Z,8.14
2023-01-26T15:21:40.212Z,8.09
2023-01-26T15:24:14.955Z,8.10
2023-01-26T15:26:43.813Z,8.17
2023-01-26T15:29:32.647Z,8.12
2023-01-26T15:32:00.711Z,8.16
2023-01-26T15:34:32.958Z,8.15
2023-01-26T15:37:01.925Z,8.17
2023-01-26T15:39:30.523Z,8.15
2023-01-26T15:42:07.886Z,8.12
2023-01-26T15:44:35.429Z,8.16
2023-01-26T15:47:06.736Z,8.18
2023-01-26T15:49:34.074Z,8.15
2023-01-26T15:52:01.463Z,8.14
2023-01-26T15:54:28.809Z,8.23
2023-01-26T15:56:55.967Z,8.25
2023-01-26T15:59:23.355Z,8.27
2023-01-26T16:01:50.688Z,8.18
2023-01-26T16:04:18.191Z,8.17
2023-01-26T16:06:45.501Z,7.98
2023-01-26T16:09:13.030Z,8.02
2023-01-26T16:11:47.794Z,8.06
2023-01-26T16:14:17.607Z,8.07
2023-01-26T16:16:45.237Z,8.06
2023-01-26T16:19:20.578Z,8.07
2023-01-26T16:21:54.039Z,8.02
2023-01-26T16:24:21.602Z,8.09
2023-01-26T16:26:51.351Z,8.02
2023-01-26T16:29:18.660Z,8.00
2023-01-26T16:31:46.032Z,8.04
2023-01-26T16:34:13.289Z,7.96
2023-01-26T16:36:40.742Z,7.93
2023-01-26T16:39:08.075Z,7.83
2023-01-26T16:41:35.692Z,7.81
2023-01-26T16:44:03.968Z,7.85
2023-01-26T16:46:32.294Z,7.90
2023-01-26T16:48:59.769Z,7.82
2023-01-26T16:51:30.880Z,7.92
2023-01-26T16:53:58.688Z,7.96
2023-01-26T16:56:26.116Z,7.92
2023-01-26T16:58:53.503Z,7.96
2023-01-26T17:01:24.338Z,7.91
2023-01-26T17:03:52.246Z,7.78
2023-01-26T17:06:20.452Z,7.70
2023-01-26T17:08:49.213Z,7.75
2023-01-26T17:11:27.590Z,7.67
2023-01-26T17:13:56.885Z,7.58
2023-01-26T17:16:29.624Z,7.59
2023-01-26T17:18:57.338Z,7.54
2023-01-26T17:21:26.857Z,7.56
2023-01-26T17:23:57.559Z,7.48
2023-01-26T17:26:25.174Z,7.41
2023-01-26T17:28:56.480Z,7.37
2023-01-26T17:31:25.386Z,7.31
2023-01-26T17:33:54.632Z,7.35
2023-01-26T17:36:22.318Z,7.28
2023-01-26T17:38:49.739Z,7.12
2023-01-26T17:41:17.671Z,7.26
2023-01-26T17:43:45.505Z,7.23
2023-01-26T17:46:15.908Z,7.24
2023-01-26T17:48:45.315Z,7.23
2023-01-26T17:51:21.105Z,7.22
2023-01-26T17:53:54.304Z,7.19
2023-01-26T17:56:22.574Z,7.13
2023-01-26T17:58:52.101Z,7.14
2023-01-26T18:01:21.796Z,7.09
2023-01-26T18:03:49.903Z,7.16
2023-01-26T18:06:17.854Z,7.17
2023-01-26T18:08:45.796Z,7.17
2023-01-26T18:11:15.099Z,7.09
2023-01-26T18:13:43.123Z,6.91
2023-01-26T18:16:15.074Z,6.91
2023-01-26T18:18:42.786Z,6.96
2023-01-26T18:21:22.727Z,7.02
2023-01-26T18:23:52.558Z,6.97
2023-01-26T18:26:22.775Z,6.90
2023-01-26T18:28:50.756Z,7.02
2023-01-26T18:31:23.203Z,7.04
2023-01-26T18:33:50.936Z,7.02
2023-01-26T18:36:20.576Z,7.03
2023-01-26T18:38:53.797Z,6.94
2023-01-26T18:41:23.221Z,7.00
2023-01-26T18:43:52.179Z,7.01
2023-01-26T18:46:20.845Z,6.98
2023-01-26T18:48:48.531Z,6.89
2023-01-26T18:51:18.314Z,6.76
2023-01-26T18:53:45.809Z,6.83
2023-01-26T18:56:16.312Z,6.68
2023-01-26T18:58:44.119Z,6.59
2023-01-26T19:01:14.604Z,6.60
2023-01-26T19:03:47.451Z,6.59
2023-01-26T19:06:20.120Z,6.71
2023-01-26T19:08:55.503Z,6.72
2023-01-26T19:11:23.029Z,6.67
2023-01-26T19:13:50.321Z,6.66
2023-01-26T19:16:17.798Z,6.61
2023-01-26T19:18:45.134Z,6.59
2023-01-26T19:21:12.700Z,6.63
2023-01-26T19:23:42.670Z,6.73
2023-01-26T19:26:15.365Z,6.74
2023-01-26T19:28:42.960Z,6.70
2023-01-26T19:31:11.069Z,6.57
2023-01-26T19:33:39.318Z,6.45
2023-01-26T19:36:07.990Z,6.45
2023-01-26T19:38:39.347Z,6.51
2023-01-26T19:41:07.066Z,6.53
2023-01-26T19:43:34.531Z,6.51
2023-01-26T19:46:02.849Z,6.46
2023-01-26T19:48:30.180Z,6.45
2023-01-26T19:50:59.352Z,6.50
2023-01-26T19:53:27.936Z,6.50
2023-01-26T19:55:55.453Z,6.63
2023-01-26T19:58:22.686Z,6.68
2023-01-26T20:00:50.046Z,6.79
2023-01-26T20:03:18.881Z,6.74
2023-01-26T20:05:46.479Z,6.74
2023-01-26T20:08:13.924Z,6.73
2023-01-26T20:10:41.264Z,6.75
2023-01-26T20:13:08.553Z,6.95
2023-01-26T20:15:36.828Z,6.89
2023-01-26T20:18:04.416Z,6.96
2023-01-26T20:20:31.988Z,6.94
2023-01-26T20:22:59.654Z,6.95
2023-01-26T20:25:27.664Z,6.88
2023-01-26T20:27:55.151Z,6.95
2023-01-26T20:30:23.043Z,6.88
2023-01-26T20:32:53.985Z,6.96
2023-01-26T20:35:21.783Z,6.98
2023-01-26T20:37:49.259Z,6.99
2023-01-26T20:40:16.821Z,7.01
2023-01-26T20:42:44.046Z,7.09
2023-01-26T20:45:12.301Z,7.16
2023-01-26T20:47:41.050Z,7.07
2023-01-26T20:50:09.427Z,7.02
2023-01-26T20:52:37.422Z,7.06
2023-01-26T20:55:08.137Z,7.03
2023-01-26T20:57:35.664Z,7.01
2023-01-26T21:00:03.334Z,7.02
2023-01-26T21:02:30.716Z,6.88
2023-01-26T21:04:58.302Z,6.94
2023-01-26T21:07:28.288Z,7.00
2023-01-26T21:09:55.880Z,6.98
2023-01-26T21:12:23.376Z,6.90
2023-01-26T21:14:50.713Z,6.82
2023-01-26T21:17:22.523Z,6.78
2023-01-26T21:19:50.155Z,6.86
2023-01-26T21:22:17.611Z,6.87
2023-01-26T21:24:45.038Z,6.82
2023-01-26T21:27:12.441Z,6.77
2023-01-26T21:29:40.854Z,6.73
2023-01-26T21:32:08.499Z,6.78
2023-01-26T21:34:36.052Z,6.74
2023-01-26T21:37:03.362Z,6.82
2023-01-26T21:39:30.852Z,6.79
2023-01-26T21:41:59.198Z,6.66
2023-01-26T21:44:29.159Z,6.66
2023-01-26T21:47:03.035Z,6.67
2023-01-26T21:49:30.762Z,6.72
2023-01-26T21:52:16.899Z,6.70
2023-01-26T21:54:44.336Z,6.80
2023-01-26T21:57:30.725Z,6.78
2023-01-26T21:59:58.236Z,6.73
2023-01-26T22:02:25.516Z,6.81
2023-01-26T22:04:52.796Z,6.75
2023-01-26T22:07:20.033Z,6.65
2023-01-26T22:09:47.499Z,6.72
2023-01-26T22:12:15.599Z,6.73
2023-01-26T22:14:43.096Z,6.62
2023-01-26T22:17:10.375Z,6.65
2023-01-26T22:19:37.871Z,6.69
2023-01-26T22:22:05.409Z,6.65
2023-01-26T22:24:32.880Z,6.68
2023-01-26T22:27:00.213Z,6.65
2023-01-26T22:29:27.555Z,6.72
2023-01-26T22:31:54.899Z,6.78
2023-01-26T22:34:22.597Z,6.74
2023-01-26T22:36:50.009Z,6.80
2023-01-26T22:39:17.447Z,6.79
2023-01-26T22:41:45.461Z,6.78
2023-01-26T22:44:12.919Z,6.77
2023-01-26T22:46:40.396Z,6.74
2023-01-26T22:49:07.784Z,6.70
2023-01-26T22:51:38.340Z,6.70
2023-01-26T22:54:06.297Z,6.66
2023-01-26T22:56:34.430Z,6.64
2023-01-26T22:59:02.232Z,6.76
2023-01-26T23:01:32.259Z,6.75
2023-01-26T23:04:00.789Z,6.79
2023-01-26T23:06:29.008Z,6.84
2023-01-26T23:08:58.387Z,6.78
2023-01-26T23:11:28.567Z,6.86
2023-01-26T23:13:58.994Z,6.84
2023-01-26T23:16:27.314Z,6.75
2023-01-26T23:18:57.166Z,6.87
2023-01-26T23:21:26.041Z,6.97
2023-01-26T23:23:53.515Z,6.95
2023-01-26T23:26:21.347Z,7.05
2023-01-26T23:28:49.084Z,7.02
2023-01-26T23:31:18.268Z,7.03
2023-01-26T23:33:46.532Z,7.02
2023-01-26T23:36:15.106Z,7.03
2023-01-26T23:38:43.941Z,7.00
2023-01-26T23:41:12.202Z,6.98
2023-01-26T23:43:40.368Z,6.90
2023-01-26T23:46:08.853Z,6.94
2023-01-26T23:48:36.293Z,6.99
2023-01-26T23:51:07.375Z,6.97
2023-01-26T23:53:35.374Z,7.01
2023-01-26T23:56:28.962Z,6.99
2023-01-26T23:58:56.401Z,7.01
